createdAt,value
2023-02-02T00:00:34.603Z,9.302634
2023-02-02T00:01:33.879Z,9.302630
2023-02-02T00:02:33.855Z,9.302874
2023-02-02T00:03:33.897Z,9.302861
2023-02-02T00:04:33.815Z,9.302631
2023-02-02T00:05:33.814Z,9.302741
2023-02-02T00:06:33.816Z,9.302856
2023-02-02T00:07:33.772Z,9.303118
2023-02-02T00:08:33.793Z,9.303123
2023-02-02T00:09:34.020Z,9.302838
2023-02-02T00:10:33.751Z,9.302766
2023-02-02T00:11:33.816Z,9.302719
2023-02-02T00:12:33.994Z,9.302691
2023-02-02T00:13:33.802Z,9.302874
2023-02-02T00:14:33.843Z,9.303139
2023-02-02T00:15:33.703Z,9.302988
2023-02-02T00:16:33.865Z,9.302958
2023-02-02T00:17:33.780Z,9.302950
2023-02-02T00:18:33.784Z,9.302885
2023-02-02T00:19:33.826Z,9.302884
2023-02-02T00:20:33.690Z,9.302913
2023-02-02T00:21:34.660Z,9.302916
2023-02-02T00:22:33.644Z,9.302867
2023-02-02T00:23:33.802Z,9.302812
2023-02-02T00:24:33.768Z,9.302976
2023-02-02T00:25:34.073Z,9.302990
2023-02-02T00:26:33.805Z,9.302810
2023-02-02T00:27:33.903Z,9.303007
2023-02-02T00:28:33.675Z,9.303079
2023-02-02T00:29:33.616Z,9.302977
2023-02-02T00:30:33.838Z,9.302815
2023-02-02T00:31:33.583Z,9.303061
2023-02-02T00:32:33.835Z,9.303152
2023-02-02T00:33:33.576Z,9.303087
2023-02-02T00:34:33.621Z,9.302943
2023-02-02T00:35:33.649Z,9.303067
2023-02-02T00:36:33.569Z,9.302905
2023-02-02T00:37:34.463Z,9.303030
2023-02-02T00:38:33.543Z,9.302930
2023-02-02T00:39:33.609Z,9.302959
2023-02-02T00:40:33.796Z,9.303177
2023-02-02T00:41:33.541Z,9.302888
2023-02-02T00:42:33.520Z,9.302892
2023-02-02T00:43:33.428Z,9.302833
2023-02-02T00:44:33.540Z,9.302880
2023-02-02T00:45:33.620Z,9.302897
2023-02-02T00:46:33.902Z,9.302989
2023-02-02T00:47:33.693Z,9.302998
2023-02-02T00:48:33.452Z,9.302895
2023-02-02T00:49:33.374Z,9.302923
2023-02-02T00:50:33.433Z,9.302897
2023-02-02T00:51:33.396Z,9.302864
2023-02-02T00:52:33.520Z,9.302771
2023-02-02T00:53:33.820Z,9.302799
2023-02-02T00:54:33.422Z,9.302705
2023-02-02T00:55:33.587Z,9.302658
2023-02-02T00:56:33.342Z,9.302699
2023-02-02T00:57:33.567Z,9.302779
2023-02-02T00:58:33.391Z,9.302776
2023-02-02T00:59:33.312Z,9.302836
2023-02-02T01:00:33.652Z,9.302810
2023-02-02T01:01:33.316Z,9.302818
2023-02-02T01:02:33.404Z,9.302966
2023-02-02T01:03:33.937Z,9.302929
2023-02-02T01:04:33.900Z,9.302860
2023-02-02T01:05:33.332Z,9.302878
2023-02-02T01:06:33.195Z,9.303068
2023-02-02T01:07:33.346Z,9.302926
2023-02-02T01:08:33.230Z,9.302958
2023-02-02T01:09:33.251Z,9.303003
2023-02-02T01:10:33.387Z,9.302898
2023-02-02T01:11:33.110Z,9.303112
2023-02-02T01:12:33.361Z,9.303021
2023-02-02T01:13:33.164Z,9.302983
2023-02-02T01:14:33.878Z,9.302963
2023-02-02T01:15:33.144Z,9.302956
2023-02-02T01:16:33.243Z,9.302992
2023-02-02T01:17:33.172Z,9.302976
2023-02-02T01:18:33.131Z,9.302917
2023-02-02T01:19:33.335Z,9.303048
2023-02-02T01:20:33.205Z,9.302946
2023-02-02T01:21:33.130Z,9.303007
2023-02-02T01:22:33.303Z,9.302970
2023-02-02T01:23:33.070Z,9.302946
2023-02-02T01:24:33.237Z,9.302887
2023-02-02T01:25:33.108Z,9.302932
2023-02-02T01:26:33.927Z,9.302913
2023-02-02T01:27:33.025Z,9.303072
2023-02-02T01:28:33.797Z,9.303080
2023-02-02T01:29:32.970Z,9.303115
2023-02-02T01:30:33.138Z,9.303030
2023-02-02T01:31:33.039Z,9.302902
2023-02-02T01:32:32.993Z,9.302962
2023-02-02T01:33:33.206Z,9.302990
2023-02-02T01:34:32.985Z,9.302974
2023-02-02T01:35:33.236Z,9.303165
2023-02-02T01:36:33.037Z,9.302987
2023-02-02T01:37:33.085Z,9.302914
2023-02-02T01:38:33.021Z,9.302892
2023-02-02T01:39:34.296Z,9.302969
2023-02-02T01:40:34.170Z,9.302926
2023-02-02T01:41:32.884Z,9.302991
2023-02-02T01:42:32.913Z,9.302960
2023-02-02T01:43:32.873Z,9.302789
2023-02-02T01:44:33.054Z,9.302804
2023-02-02T01:45:33.095Z,9.302719
2023-02-02T01:46:32.992Z,9.302990
2023-02-02T01:47:32.882Z,9.302999
2023-02-02T01:48:32.974Z,9.303108
2023-02-02T01:49:32.787Z,9.302617
2023-02-02T01:50:33.129Z,9.302575
2023-02-02T01:51:32.874Z,9.302677
2023-02-02T01:52:32.844Z,9.302923
2023-02-02T01:53:32.754Z,9.302987
2023-02-02T01:54:32.750Z,9.303012
2023-02-02T01:55:32.908Z,9.303100
2023-02-02T01:56:32.826Z,9.303197
2023-02-02T01:57:32.938Z,9.303274
2023-02-02T01:58:32.911Z,9.303266
2023-02-02T01:59:32.774Z,9.303210
2023-02-02T02:00:32.873Z,9.302938
2023-02-02T02:01:33.245Z,9.303015
2023-02-02T02:02:33.052Z,9.303024
2023-02-02T02:03:32.879Z,9.303014
2023-02-02T02:04:33.205Z,9.302984
2023-02-02T02:05:33.272Z,9.302932
2023-02-02T02:06:32.583Z,9.303009
2023-02-02T02:07:32.643Z,9.303042
2023-02-02T02:08:32.621Z,9.303084
2023-02-02T02:09:32.574Z,9.303072
2023-02-02T02:10:32.979Z,9.303094
2023-02-02T02:11:32.702Z,9.303095
2023-02-02T02:12:32.979Z,9.303127
2023-02-02T02:13:32.715Z,9.303004
2023-02-02T02:14:32.590Z,9.302938
2023-02-02T02:15:32.663Z,9.302948
2023-02-02T02:16:32.610Z,9.302933
2023-02-02T02:17:33.383Z,9.302962
2023-02-02T02:18:32.646Z,9.303090
2023-02-02T02:19:32.572Z,9.303055
2023-02-02T02:20:32.523Z,9.303000
2023-02-02T02:21:32.798Z,9.302979
2023-02-02T02:22:32.534Z,9.302983
2023-02-02T02:23:32.513Z,9.303060
2023-02-02T02:24:33.390Z,9.303082
2023-02-02T02:25:32.549Z,9.303045
2023-02-02T02:26:33.846Z,9.303079
2023-02-02T02:27:32.458Z,9.303157
2023-02-02T02:28:32.477Z,9.302975
2023-02-02T02:29:32.431Z,9.302945
2023-02-02T02:30:32.515Z,9.303011
2023-02-02T02:31:32.561Z,9.303069
2023-02-02T02:32:32.637Z,9.302993
2023-02-02T02:33:32.424Z,9.303149
2023-02-02T02:34:32.531Z,9.303083
2023-02-02T02:35:32.387Z,9.303098
2023-02-02T02:36:32.841Z,9.303071
2023-02-02T02:37:32.384Z,9.303000
2023-02-02T02:38:32.396Z,9.302951
2023-02-02T02:39:32.340Z,9.302980
2023-02-02T02:40:32.427Z,9.303027
2023-02-02T02:41:32.286Z,9.302999
2023-02-02T02:42:32.417Z,9.302735
2023-02-02T02:43:34.704Z,9.303120
2023-02-02T02:44:32.289Z,9.303056
2023-02-02T02:45:32.259Z,9.302827
2023-02-02T02:46:32.405Z,9.302995
2023-02-02T02:47:32.272Z,9.303074
2023-02-02T02:48:32.272Z,9.302997
2023-02-02T02:49:32.574Z,9.303007
2023-02-02T02:50:32.511Z,9.303050
2023-02-02T02:51:32.201Z,9.302890
2023-02-02T02:52:32.251Z,9.303077
2023-02-02T02:53:32.296Z,9.303057
2023-02-02T02:54:33.924Z,9.303024
2023-02-02T02:55:32.242Z,9.303022
2023-02-02T02:56:32.316Z,9.303203
2023-02-02T02:57:32.192Z,9.303174
2023-02-02T02:58:35.253Z,9.303025
2023-02-02T02:59:32.197Z,9.302965
2023-02-02T03:00:32.123Z,9.302951
2023-02-02T03:01:32.250Z,9.302960
2023-02-02T03:02:32.109Z,9.302984
2023-02-02T03:03:33.696Z,9.302920
2023-02-02T03:04:32.034Z,9.303144
2023-02-02T03:05:32.077Z,9.302981
2023-02-02T03:06:32.260Z,9.303111
2023-02-02T03:07:32.100Z,9.302991
2023-02-02T03:08:32.408Z,9.303137
2023-02-02T03:09:32.180Z,9.303458
2023-02-02T03:10:32.684Z,9.303362
2023-02-02T03:11:32.951Z,9.303102
2023-02-02T03:12:33.697Z,9.303075
2023-02-02T03:13:32.909Z,9.303463
2023-02-02T03:14:31.979Z,9.303231
2023-02-02T03:15:34.657Z,9.303083
2023-02-02T03:16:32.106Z,9.302977
2023-02-02T03:17:32.007Z,9.302734
2023-02-02T03:18:32.054Z,9.303061
2023-02-02T03:19:31.995Z,9.303059
2023-02-02T03:20:32.413Z,9.303017
2023-02-02T03:21:31.948Z,9.303171
2023-02-02T03:22:32.930Z,9.302821
2023-02-02T03:23:32.050Z,9.302719
2023-02-02T03:24:34.775Z,9.302645
2023-02-02T03:25:33.787Z,9.302629
2023-02-02T03:26:32.090Z,9.302579
2023-02-02T03:27:33.938Z,9.302572
2023-02-02T03:28:32.525Z,9.302526
2023-02-02T03:29:33.494Z,9.302491
2023-02-02T03:30:33.507Z,9.302533
2023-02-02T03:31:32.663Z,9.302583
2023-02-02T03:32:32.129Z,9.302651
2023-02-02T03:33:33.048Z,9.302843
2023-02-02T03:34:31.902Z,9.302813
2023-02-02T03:35:31.919Z,9.302918
2023-02-02T03:36:31.953Z,9.303064
2023-02-02T03:37:31.773Z,9.302899
2023-02-02T03:38:31.859Z,9.302728
2023-02-02T03:39:31.737Z,9.302914
2023-02-02T03:40:32.268Z,9.303040
2023-02-02T03:41:31.901Z,9.303106
2023-02-02T03:42:31.800Z,9.302861
2023-02-02T03:43:31.959Z,9.302941
2023-02-02T03:44:31.687Z,9.303045
2023-02-02T03:45:32.317Z,9.302984
2023-02-02T03:46:31.904Z,9.302911
2023-02-02T03:47:32.710Z,9.302785
2023-02-02T03:48:31.691Z,9.302856
2023-02-02T03:49:31.953Z,9.303017
2023-02-02T03:50:33.342Z,9.303045
2023-02-02T03:51:31.725Z,9.303010
2023-02-02T03:52:31.888Z,9.302941
2023-02-02T03:53:31.953Z,9.302960
2023-02-02T03:54:33.638Z,9.303150
2023-02-02T03:55:31.955Z,9.303133
2023-02-02T03:56:31.674Z,9.302916
2023-02-02T03:57:32.417Z,9.302894
2023-02-02T03:58:32.835Z,9.302876
2023-02-02T03:59:32.763Z,9.302810
2023-02-02T04:00:31.533Z,9.302845
2023-02-02T04:01:31.628Z,9.302784
2023-02-02T04:02:31.635Z,9.302940
2023-02-02T04:03:32.275Z,9.302852
2023-02-02T04:04:32.198Z,9.302884
2023-02-02T04:05:32.746Z,9.302948
2023-02-02T04:06:38.219Z,9.303132
2023-02-02T04:07:34.368Z,9.303222
2023-02-02T04:08:31.442Z,9.303085
2023-02-02T04:09:31.536Z,9.303026
2023-02-02T04:10:31.692Z,9.302906
2023-02-02T04:12:12.051Z,9.302906
2023-02-02T04:12:32.719Z,9.302948
2023-02-02T04:13:31.607Z,9.302879
2023-02-02T04:14:31.856Z,9.302830
2023-02-02T04:15:31.596Z,9.302784
2023-02-02T04:16:36.559Z,9.302830
2023-02-02T04:17:31.600Z,9.302787
2023-02-02T04:18:31.416Z,9.302819
2023-02-02T04:19:36.589Z,9.302837
2023-02-02T04:20:36.554Z,9.302898
2023-02-02T04:21:31.529Z,9.302836
2023-02-02T04:22:31.846Z,9.302751
2023-02-02T04:23:31.357Z,9.302647
2023-02-02T04:24:31.394Z,9.302862
2023-02-02T04:25:31.781Z,9.302920
2023-02-02T04:26:33.239Z,9.303018
2023-02-02T04:27:32.709Z,9.303061
2023-02-02T04:28:31.331Z,9.302946
2023-02-02T04:29:34.161Z,9.303041
2023-02-02T04:30:32.736Z,9.303000
2023-02-02T04:31:32.880Z,9.303152
2023-02-02T04:32:31.630Z,9.303176
2023-02-02T04:33:34.691Z,9.303180
2023-02-02T04:34:31.746Z,9.303014
2023-02-02T04:35:31.356Z,9.303123
2023-02-02T04:36:31.618Z,9.303083
2023-02-02T04:37:32.723Z,9.303086
2023-02-02T04:38:39.250Z,9.302961
2023-02-02T04:39:31.582Z,9.302920
2023-02-02T04:40:31.741Z,9.302946
2023-02-02T04:41:31.474Z,9.302970
2023-02-02T04:42:31.314Z,9.302990
2023-02-02T04:43:39.736Z,9.303085
2023-02-02T04:44:31.361Z,9.303003
2023-02-02T04:45:31.345Z,9.302976
2023-02-02T04:46:31.543Z,9.302890
2023-02-02T04:47:31.109Z,9.303008
2023-02-02T04:48:31.169Z,9.302960
2023-02-02T04:49:31.151Z,9.303025
2023-02-02T04:50:32.839Z,9.303096
2023-02-02T04:51:31.081Z,9.303093
2023-02-02T04:52:31.094Z,9.303043
2023-02-02T04:53:31.123Z,9.303061
2023-02-02T04:54:31.084Z,9.303190
2023-02-02T04:55:32.220Z,9.302958
2023-02-02T04:56:32.158Z,9.302987
2023-02-02T04:57:31.332Z,9.303141
2023-02-02T04:58:31.431Z,9.303067
2023-02-02T04:59:31.069Z,9.303106
2023-02-02T05:00:31.013Z,9.303032
2023-02-02T05:01:31.046Z,9.303112
2023-02-02T05:02:32.109Z,9.303012
2023-02-02T05:03:42.388Z,9.303031
2023-02-02T05:04:31.148Z,9.303118
2023-02-02T05:05:31.479Z,9.302934
2023-02-02T05:06:32.330Z,9.302956
2023-02-02T05:07:40.267Z,9.302880
2023-02-02T05:08:31.215Z,9.302927
2023-02-02T05:09:31.287Z,9.303003
2023-02-02T05:10:32.576Z,9.303072
2023-02-02T05:11:32.531Z,9.303025
2023-02-02T05:12:31.671Z,9.302932
2023-02-02T05:13:31.349Z,9.303092
2023-02-02T05:14:34.242Z,9.302938
2023-02-02T05:15:59.195Z,9.303164
2023-02-02T05:16:31.968Z,9.303095
2023-02-02T05:17:31.282Z,9.302975
2023-02-02T05:18:31.262Z,9.302938
2023-02-02T05:19:35.195Z,9.302941
2023-02-02T05:20:31.738Z,9.303070
2023-02-02T05:21:30.735Z,9.303072
2023-02-02T05:22:30.736Z,9.302997
2023-02-02T05:23:30.798Z,9.303027
2023-02-02T05:24:30.730Z,9.303040
2023-02-02T05:25:30.687Z,9.303041
2023-02-02T05:27:04.339Z,9.303125
2023-02-02T05:27:30.779Z,9.303140
2023-02-02T05:28:30.862Z,9.303059
2023-02-02T05:29:30.822Z,9.303032
2023-02-02T05:30:33.186Z,9.303107
2023-02-02T05:31:30.677Z,9.303046
2023-02-02T05:32:30.677Z,9.303113
2023-02-02T05:33:30.659Z,9.303188
2023-02-02T05:34:30.581Z,9.303122
2023-02-02T05:35:30.612Z,9.303049
2023-02-02T05:36:30.624Z,9.303003
2023-02-02T05:37:30.600Z,9.303152
2023-02-02T05:38:30.571Z,9.303054
2023-02-02T05:39:30.560Z,9.303095
2023-02-02T05:40:30.583Z,9.302988
2023-02-02T05:41:30.559Z,9.303138
2023-02-02T05:42:30.510Z,9.302859
2023-02-02T05:43:30.565Z,9.302958
2023-02-02T05:44:30.544Z,9.302882
2023-02-02T05:45:30.498Z,9.302866
2023-02-02T05:46:30.594Z,9.302908
2023-02-02T05:47:30.446Z,9.302856
2023-02-02T05:48:30.475Z,9.302937
2023-02-02T05:49:30.513Z,9.302856
2023-02-02T05:58:56.503Z,9.303369
2023-02-02T05:59:56.324Z,9.302982
2023-02-02T06:00:56.842Z,9.303042
2023-02-02T06:01:57.249Z,9.303059
2023-02-02T06:02:56.231Z,9.303027
2023-02-02T06:03:56.220Z,9.303210
2023-02-02T06:04:56.228Z,9.303139
2023-02-02T06:05:56.170Z,9.302972
2023-02-02T06:06:56.215Z,9.303068
2023-02-02T06:07:57.074Z,9.302999
2023-02-02T06:08:56.217Z,9.303127
2023-02-02T06:10:30.255Z,9.303205
2023-02-02T06:10:56.509Z,9.303285
2023-02-02T06:12:31.392Z,9.303089
2023-02-02T06:13:28.804Z,9.302870
2023-02-02T06:14:28.741Z,9.302870
2023-02-02T06:14:57.049Z,9.302953
2023-02-02T06:39:13.370Z,9.303055
2023-02-02T06:40:13.240Z,9.303088
2023-02-02T06:58:16.824Z,9.303171
2023-02-02T07:08:11.507Z,9.302785
2023-02-02T07:24:02.481Z,9.303041
2023-02-02T07:25:02.575Z,9.303020
2023-02-02T07:26:02.353Z,9.303054
2023-02-02T07:27:02.296Z,9.303081
2023-02-02T07:28:02.333Z,9.303083
2023-02-02T07:29:02.310Z,9.303103
2023-02-02T07:30:02.272Z,9.303083
2023-02-02T07:31:02.263Z,9.303034
2023-02-02T07:32:02.277Z,9.302993
2023-02-02T07:33:02.241Z,9.302980
2023-02-02T07:34:02.236Z,9.303005
2023-02-02T07:35:02.252Z,9.303056
2023-02-02T07:36:02.241Z,9.303039
2023-02-02T07:37:03.205Z,9.302993
2023-02-02T07:38:02.188Z,9.303016
2023-02-02T07:39:34.833Z,9.303022
2023-02-02T07:40:02.665Z,9.303052
2023-02-02T07:41:02.394Z,9.303110
2023-02-02T07:42:02.220Z,9.303129
2023-02-02T07:43:02.343Z,9.303048
2023-02-02T07:44:02.156Z,9.303048
2023-02-02T07:45:24.652Z,9.302868
2023-02-02T07:46:03.246Z,9.303002
2023-02-02T07:47:02.104Z,9.302976
2023-02-02T07:48:02.158Z,9.303095
2023-02-02T07:49:02.082Z,9.303012
2023-02-02T07:50:02.132Z,9.303083
2023-02-02T07:51:02.132Z,9.303040
2023-02-02T07:52:02.171Z,9.303076
2023-02-02T07:53:02.047Z,9.302812
2023-02-02T07:54:02.065Z,9.303052
2023-02-02T07:55:17.160Z,9.303170
2023-02-02T07:56:04.046Z,9.303153
2023-02-02T07:57:02.032Z,9.303123
2023-02-02T07:58:02.251Z,9.303156
2023-02-02T07:59:02.154Z,9.303179
2023-02-02T08:00:02.065Z,9.303064
2023-02-02T08:01:02.101Z,9.303231
2023-02-02T08:02:02.102Z,9.303214
2023-02-02T08:03:02.104Z,9.303003
2023-02-02T08:04:01.953Z,9.303130
2023-02-02T08:05:01.992Z,9.303073
2023-02-02T08:06:02.071Z,9.303094
2023-02-02T08:07:01.979Z,9.302967
2023-02-02T08:08:02.036Z,9.303312
2023-02-02T08:09:02.002Z,9.302937
2023-02-02T08:10:01.940Z,9.303057
2023-02-02T08:11:02.023Z,9.303172
2023-02-02T08:12:01.936Z,9.303100
2023-02-02T08:13:02.031Z,9.303141
2023-02-02T08:14:01.968Z,9.303239
2023-02-02T08:15:01.966Z,9.303266
2023-02-02T08:16:01.971Z,9.303211
2023-02-02T08:17:01.990Z,9.302787
2023-02-02T08:18:01.929Z,9.302680
2023-02-02T08:19:01.938Z,9.303000
2023-02-02T08:20:01.942Z,9.303148
2023-02-02T08:21:02.084Z,9.303193
2023-02-02T08:22:02.029Z,9.303091
2023-02-02T08:23:02.004Z,9.303034
2023-02-02T08:24:02.082Z,9.303053
2023-02-02T08:25:01.862Z,9.303068
2023-02-02T08:26:01.875Z,9.302918
2023-02-02T08:27:01.973Z,9.303102
2023-02-02T08:28:02.898Z,9.303022
2023-02-02T08:29:01.805Z,9.302934
2023-02-02T08:30:01.937Z,9.302895
2023-02-02T08:31:01.880Z,9.302984
2023-02-02T08:32:01.794Z,9.302850
2023-02-02T08:33:01.802Z,9.302876
2023-02-02T08:34:01.748Z,9.302686
2023-02-02T08:35:02.307Z,9.302745
2023-02-02T08:36:01.662Z,9.302931
2023-02-02T08:37:01.843Z,9.303167
2023-02-02T08:38:01.686Z,9.303115
2023-02-02T08:39:03.100Z,9.303111
2023-02-02T08:40:02.810Z,9.303081
2023-02-02T08:41:01.780Z,9.303086
2023-02-02T08:42:01.856Z,9.303067
2023-02-02T08:43:01.701Z,9.302771
2023-02-02T08:44:01.632Z,9.302932
2023-02-02T08:46:04.399Z,9.302870
2023-02-02T08:46:05.464Z,9.303040
2023-02-02T08:47:01.720Z,9.303293
2023-02-02T08:48:11.228Z,9.302947
2023-02-02T08:49:03.572Z,9.303069
2023-02-02T08:50:01.572Z,9.303045
2023-02-02T08:51:01.706Z,9.302871
2023-02-02T08:52:01.691Z,9.302776
2023-02-02T08:53:01.592Z,9.302612
2023-02-02T08:54:01.521Z,9.302545
2023-02-02T08:55:01.551Z,9.302747
2023-02-02T08:56:01.603Z,9.302774
2023-02-02T08:57:01.439Z,9.302719
2023-02-02T08:58:01.465Z,9.302577
2023-02-02T08:59:01.528Z,9.302629
2023-02-02T09:00:01.441Z,9.302749
2023-02-02T09:01:01.466Z,9.302890
2023-02-02T09:02:01.564Z,9.302953
2023-02-02T09:03:01.457Z,9.302923
2023-02-02T09:04:01.326Z,9.302855
2023-02-02T09:05:01.416Z,9.302983
2023-02-02T09:06:01.384Z,9.303081
2023-02-02T09:07:01.490Z,9.303087
2023-02-02T09:08:01.386Z,9.303046
2023-02-02T09:09:01.340Z,9.302960
2023-02-02T09:10:01.298Z,9.302979
2023-02-02T09:11:01.284Z,9.303038
2023-02-02T09:12:01.303Z,9.303135
2023-02-02T09:13:01.287Z,9.303089
2023-02-02T09:14:02.084Z,9.303024
2023-02-02T09:15:01.288Z,9.303167
2023-02-02T09:16:01.253Z,9.302899
2023-02-02T09:17:01.358Z,9.302977
2023-02-02T09:18:01.493Z,9.303054
2023-02-02T09:19:01.318Z,9.303029
2023-02-02T09:20:01.204Z,9.303072
2023-02-02T09:21:02.080Z,9.303061
2023-02-02T09:22:01.199Z,9.302963
2023-02-02T09:23:01.218Z,9.302951
2023-02-02T09:24:01.181Z,9.302933
2023-02-02T09:25:01.182Z,9.303019
2023-02-02T09:26:01.683Z,9.303009
2023-02-02T09:27:01.273Z,9.303012
2023-02-02T09:28:02.052Z,9.303034
2023-02-02T09:29:01.104Z,9.303023
2023-02-02T09:30:01.125Z,9.303145
2023-02-02T09:31:01.116Z,9.303180
2023-02-02T09:32:01.151Z,9.303195
2023-02-02T09:33:01.521Z,9.303039
2023-02-02T09:34:01.078Z,9.303032
2023-02-02T09:35:01.049Z,9.303018
2023-02-02T09:36:01.068Z,9.303061
2023-02-02T09:37:01.004Z,9.302999
2023-02-02T09:38:01.048Z,9.303042
2023-02-02T09:39:01.026Z,9.303057
2023-02-02T09:40:01.124Z,9.303000
2023-02-02T09:41:01.045Z,9.303025
2023-02-02T09:42:01.051Z,9.303023
2023-02-02T09:43:00.976Z,9.303043
2023-02-02T09:44:01.226Z,9.302999
2023-02-02T09:45:00.981Z,9.303005
2023-02-02T09:46:01.136Z,9.303113
2023-02-02T09:47:01.163Z,9.303104
2023-02-02T09:48:01.019Z,9.303036
2023-02-02T09:49:01.095Z,9.303060
2023-02-02T09:50:00.954Z,9.303179
2023-02-02T09:51:00.975Z,9.303064
2023-02-02T09:52:01.012Z,9.303117
2023-02-02T09:53:01.107Z,9.303061
2023-02-02T09:54:01.983Z,9.303021
2023-02-02T09:55:00.903Z,9.303061
2023-02-02T09:56:01.608Z,9.303063
2023-02-02T09:57:00.969Z,9.303078
2023-02-02T09:58:00.932Z,9.303079
2023-02-02T09:59:13.746Z,9.303007
2023-02-02T10:00:02.903Z,9.302997
2023-02-02T10:01:00.911Z,9.302961
2023-02-02T10:02:00.938Z,9.303070
2023-02-02T10:03:00.891Z,9.302995
2023-02-02T10:04:00.867Z,9.303038
2023-02-02T10:05:00.800Z,9.302951
2023-02-02T10:06:00.789Z,9.303017
2023-02-02T10:07:00.729Z,9.302925
2023-02-02T10:08:01.285Z,9.302951
2023-02-02T10:09:00.704Z,9.303026
2023-02-02T10:10:00.716Z,9.303038
2023-02-02T10:11:00.779Z,9.302974
2023-02-02T10:12:00.749Z,9.303103
2023-02-02T10:13:00.754Z,9.302962
2023-02-02T10:14:00.635Z,9.302957
2023-02-02T10:15:00.824Z,9.302989
2023-02-02T10:16:01.775Z,9.302938
2023-02-02T10:17:01.741Z,9.302935
2023-02-02T10:18:00.783Z,9.302962
2023-02-02T10:19:00.676Z,9.302984
2023-02-02T10:20:00.653Z,9.302920
2023-02-02T10:21:00.695Z,9.303064
2023-02-02T10:22:00.719Z,9.302980
2023-02-02T10:23:00.662Z,9.302987
2023-02-02T10:24:02.299Z,9.303006
2023-02-02T10:25:01.605Z,9.303034
2023-02-02T10:26:00.635Z,9.303033
2023-02-02T10:27:00.707Z,9.303047
2023-02-02T10:28:00.825Z,9.303015
2023-02-02T10:29:00.853Z,9.302973
2023-02-02T10:30:00.571Z,9.302996
2023-02-02T10:31:00.686Z,9.302963
2023-02-02T10:32:00.697Z,9.302936
2023-02-02T10:33:01.656Z,9.302927
2023-02-02T10:34:01.538Z,9.303062
2023-02-02T10:35:13.050Z,9.303079
2023-02-02T10:36:02.528Z,9.302930
2023-02-02T10:37:00.544Z,9.302909
2023-02-02T10:38:00.579Z,9.303040
2023-02-02T10:39:00.469Z,9.303045
2023-02-02T10:40:00.533Z,9.302960
2023-02-02T10:41:00.511Z,9.302840
2023-02-02T10:42:00.500Z,9.302965
2023-02-02T10:43:00.441Z,9.302954
2023-02-02T10:44:00.548Z,9.302977
2023-02-02T10:45:00.443Z,9.302979
2023-02-02T10:46:00.413Z,9.302999
2023-02-02T10:47:00.356Z,9.303074
2023-02-02T10:48:00.432Z,9.303349
2023-02-02T10:49:01.726Z,9.303010
2023-02-02T10:50:00.554Z,9.303019
2023-02-02T10:51:00.365Z,9.303180
2023-02-02T10:52:00.355Z,9.303181
2023-02-02T10:53:00.389Z,9.303083
2023-02-02T10:54:00.346Z,9.303041
2023-02-02T10:55:02.893Z,9.303057
2023-02-02T10:56:00.337Z,9.303001
2023-02-02T10:57:00.356Z,9.303276
2023-02-02T10:58:00.310Z,9.303010
2023-02-02T10:59:00.299Z,9.303093
2023-02-02T11:00:00.274Z,9.303062
2023-02-02T11:01:00.485Z,9.303177
2023-02-02T11:02:08.685Z,9.303192
2023-02-02T11:03:02.213Z,9.303082
2023-02-02T11:04:00.246Z,9.303012
2023-02-02T11:05:00.181Z,9.303137
2023-02-02T11:06:00.203Z,9.303059
2023-02-02T11:07:01.592Z,9.303063
2023-02-02T11:08:01.094Z,9.303064
2023-02-02T11:09:00.120Z,9.303050
2023-02-02T11:10:00.104Z,9.303164
2023-02-02T11:11:00.048Z,9.303025
2023-02-02T11:12:00.082Z,9.303134
2023-02-02T11:13:01.927Z,9.303182
2023-02-02T11:14:00.060Z,9.303168
2023-02-02T11:15:00.158Z,9.303033
2023-02-02T11:16:05.582Z,9.302989
2023-02-02T11:17:01.996Z,9.302918
2023-02-02T11:18:00.020Z,9.302882
2023-02-02T11:19:00.055Z,9.302803
2023-02-02T11:19:59.976Z,9.302966
2023-02-02T11:20:59.952Z,9.302746
2023-02-02T11:22:00.048Z,9.302732
2023-02-02T11:22:59.939Z,9.302793
2023-02-02T11:23:59.999Z,9.302984
2023-02-02T11:24:59.939Z,9.303020
2023-02-02T11:25:59.990Z,9.302915
2023-02-02T11:26:59.954Z,9.303132
2023-02-02T11:27:59.898Z,9.303095
2023-02-02T11:29:00.980Z,9.303205
2023-02-02T11:29:59.898Z,9.303107
2023-02-02T11:30:59.958Z,9.302981
2023-02-02T11:31:59.919Z,9.303102
2023-02-02T11:32:59.893Z,9.303135
2023-02-02T11:33:59.908Z,9.302995
2023-02-02T11:34:59.826Z,9.302859
2023-02-02T11:35:59.904Z,9.302941
2023-02-02T11:36:59.825Z,9.303099
2023-02-02T11:37:59.811Z,9.303058
2023-02-02T11:38:59.803Z,9.302931
2023-02-02T11:39:59.762Z,9.303049
2023-02-02T11:40:59.994Z,9.303082
2023-02-02T11:41:59.822Z,9.303030
2023-02-02T11:42:59.791Z,9.303009
2023-02-02T11:43:59.761Z,9.303053
2023-02-02T11:44:59.750Z,9.302981
2023-02-02T11:46:02.372Z,9.303273
2023-02-02T11:47:00.709Z,9.303065
2023-02-02T11:47:59.748Z,9.303065
2023-02-02T11:48:59.690Z,9.302985
2023-02-02T11:49:59.663Z,9.302949
2023-02-02T11:50:59.727Z,9.303004
2023-02-02T11:51:59.673Z,9.303002
2023-02-02T11:52:59.669Z,9.302997
2023-02-02T11:53:59.684Z,9.303043
2023-02-02T11:54:59.706Z,9.302972
2023-02-02T11:55:59.652Z,9.302975
2023-02-02T11:56:59.659Z,9.303000
2023-02-02T11:57:59.653Z,9.302921
2023-02-02T11:58:59.648Z,9.302892
2023-02-02T11:59:59.649Z,9.302937
2023-02-02T12:00:59.563Z,9.302947
2023-02-02T12:02:00.325Z,9.303038
2023-02-02T12:02:59.555Z,9.303120
2023-02-02T12:03:59.777Z,9.303072
2023-02-02T12:04:59.556Z,9.302958
2023-02-02T12:05:59.510Z,9.302896
2023-02-02T12:06:59.524Z,9.302993
2023-02-02T12:07:59.501Z,9.302868
2023-02-02T12:08:59.759Z,9.303129
2023-02-02T12:09:59.495Z,9.302902
2023-02-02T12:10:59.464Z,9.302921
2023-02-02T12:11:59.555Z,9.303019
2023-02-02T12:12:59.441Z,9.302917
2023-02-02T12:13:59.430Z,9.302856
2023-02-02T12:15:00.382Z,9.302720
2023-02-02T12:15:59.495Z,9.303020
2023-02-02T12:16:59.392Z,9.302804
2023-02-02T12:17:59.396Z,9.302848
2023-02-02T12:19:00.406Z,9.302912
2023-02-02T12:19:59.377Z,9.302841
2023-02-02T12:20:59.364Z,9.303064
2023-02-02T12:21:59.367Z,9.303027
2023-02-02T12:22:59.379Z,9.303011
2023-02-02T12:23:59.327Z,9.302994
2023-02-02T12:24:59.395Z,9.302968
2023-02-02T12:25:59.334Z,9.302977
2023-02-02T12:26:59.335Z,9.303036
2023-02-02T12:27:59.273Z,9.303012
2023-02-02T12:28:59.290Z,9.303107
2023-02-02T12:29:59.299Z,9.303034
2023-02-02T12:30:59.271Z,9.303080
2023-02-02T12:31:59.454Z,9.302958
2023-02-02T12:32:59.250Z,9.302909
2023-02-02T12:33:59.293Z,9.302973
2023-02-02T12:34:59.247Z,9.302926
2023-02-02T12:35:59.257Z,9.303076
2023-02-02T12:36:59.192Z,9.302921
2023-02-02T12:37:59.306Z,9.302901
2023-02-02T12:38:59.400Z,9.302884
2023-02-02T12:39:59.357Z,9.303022
2023-02-02T12:40:59.179Z,9.303020
2023-02-02T12:41:59.168Z,9.303218
2023-02-02T12:42:59.501Z,9.303069
2023-02-02T12:43:59.393Z,9.303003
2023-02-02T12:44:59.564Z,9.302988
2023-02-02T12:45:59.332Z,9.302957
2023-02-02T12:46:59.214Z,9.303027
2023-02-02T12:47:59.631Z,9.303180
2023-02-02T12:48:59.193Z,9.303102
2023-02-02T12:49:59.200Z,9.303062
2023-02-02T12:50:59.087Z,9.302844
2023-02-02T12:51:59.217Z,9.302876
2023-02-02T12:52:59.852Z,9.302796
2023-02-02T12:54:34.603Z,9.303022
2023-02-02T12:55:00.182Z,9.303058
2023-02-02T12:55:59.118Z,9.302970
2023-02-02T12:56:59.080Z,9.303020